createdAt,value
2023-02-05T00:01:41.493Z,100142.09
2023-02-05T00:04:09.201Z,100145.59
2023-02-05T00:06:36.867Z,100151.69
2023-02-05T00:09:04.311Z,100142.09
2023-02-05T00:11:32.450Z,100148.28
2023-02-05T00:14:00.979Z,100133.44
2023-02-05T00:16:28.421Z,100032.50
2023-02-05T00:18:57.196Z,100148.25
2023-02-05T00:21:24.992Z,100059.34
2023-02-05T00:23:53.910Z,100157.72
2023-02-05T00:26:21.621Z,100154.22
2023-02-05T00:28:49.526Z,100152.56
2023-02-05T00:31:20.432Z,100153.41
2023-02-05T00:33:49.355Z,100155.94
2023-02-05T00:36:18.189Z,100153.34
2023-02-05T00:38:46.676Z,100156.81
2023-02-05T00:41:15.142Z,100157.69
2023-02-05T00:43:43.668Z,100167.25
2023-02-05T00:46:12.775Z,100161.19
2023-02-05T00:48:41.405Z,100162.06
2023-02-05T00:51:09.791Z,100135.94
2023-02-05T00:53:37.489Z,100163.78
2023-02-05T00:56:05.602Z,100157.63
2023-02-05T00:58:34.541Z,100171.47
2023-02-05T01:01:02.836Z,100154.94
2023-02-05T01:03:30.748Z,100077.41
2023-02-05T01:05:58.280Z,100176.63
2023-02-05T01:08:25.641Z,100166.13
2023-02-05T01:10:53.627Z,100127.88
2023-02-05T01:13:21.188Z,100081.69
2023-02-05T01:15:50.309Z,100176.72
2023-02-05T01:18:18.436Z,100185.41
2023-02-05T01:20:46.585Z,100181.91
2023-02-05T01:23:14.095Z,100192.28
2023-02-05T01:25:41.761Z,100186.13
2023-02-05T01:28:09.656Z,100052.78
2023-02-05T01:30:37.770Z,100179.91
2023-02-05T01:33:05.823Z,100074.50
2023-02-05T01:35:33.834Z,100193.81
2023-02-05T01:38:03.093Z,100126.72
2023-02-05T01:40:30.743Z,100084.06
2023-02-05T01:42:58.254Z,100189.47
2023-02-05T01:45:25.796Z,100193.03
2023-02-05T01:47:56.244Z,100103.31
2023-02-05T01:50:42.631Z,100175.50
2023-02-05T01:54:00.851Z,100195.44
2023-02-05T01:56:34.126Z,100196.13
2023-02-05T01:59:05.603Z,100188.44
2023-02-05T02:01:33.394Z,100164.97
2023-02-05T02:04:04.890Z,100117.88
2023-02-05T02:06:37.057Z,100201.63
2023-02-05T02:09:06.715Z,100201.59
2023-02-05T02:11:38.538Z,100210.22
2023-02-05T02:14:08.072Z,100209.34
2023-02-05T02:16:38.743Z,100193.69
2023-02-05T02:19:17.113Z,100178.88
2023-02-05T02:22:08.967Z,100210.16
2023-02-05T02:24:48.802Z,100212.69
2023-02-05T02:27:22.196Z,100215.28
2023-02-05T02:29:59.176Z,100059.28
2023-02-05T02:32:43.270Z,100206.44
2023-02-05T02:35:16.942Z,100216.88
2023-02-05T02:37:52.883Z,100152.13
2023-02-05T02:40:46.764Z,100215.94
2023-02-05T02:43:26.738Z,100229.75
2023-02-05T02:46:02.596Z,100062.50
2023-02-05T02:48:33.209Z,100224.53
2023-02-05T02:51:03.958Z,100224.56
2023-02-05T02:53:37.341Z,100230.66
2023-02-05T02:56:08.239Z,100216.75
2023-02-05T02:58:45.411Z,100124.34
2023-02-05T03:01:16.006Z,100178.34
2023-02-05T03:03:51.723Z,100200.06
2023-02-05T03:06:21.062Z,100219.19
2023-02-05T03:09:10.545Z,100236.53
2023-02-05T03:11:38.505Z,100233.91
2023-02-05T03:14:06.529Z,100224.28
2023-02-05T03:16:37.575Z,100148.22
2023-02-05T03:19:06.704Z,100238.94
2023-02-05T03:21:40.494Z,100237.97
2023-02-05T03:24:12.450Z,100254.47
2023-02-05T03:26:43.482Z,100250.06
2023-02-05T03:29:27.506Z,100243.19
2023-02-05T03:32:02.522Z,100238.88
2023-02-05T03:34:49.798Z,100246.66
2023-02-05T03:38:10.722Z,100210.88
2023-02-05T03:40:49.382Z,100246.63
2023-02-05T03:43:42.413Z,100245.81
2023-02-05T03:46:16.799Z,100243.25
2023-02-05T03:48:52.604Z,100250.25
2023-02-05T03:51:38.556Z,100241.66
2023-02-05T03:54:55.466Z,100161.44
2023-02-05T03:57:56.999Z,100079.38
2023-02-05T04:00:26.289Z,100246.84
2023-02-05T04:02:55.141Z,100247.81
2023-02-05T04:05:27.737Z,100244.44
2023-02-05T04:07:56.829Z,100237.41
2023-02-05T04:10:29.506Z,100250.41
2023-02-05T04:12:59.546Z,100257.34
2023-02-05T04:15:28.066Z,100255.69
2023-02-05T04:17:58.742Z,100176.25
2023-02-05T04:20:28.353Z,100247.78
2023-02-05T04:22:56.062Z,100252.16
2023-02-05T04:25:24.867Z,100240.84
2023-02-05T04:27:54.342Z,100051.75
2023-02-05T04:30:22.111Z,100255.72
2023-02-05T04:32:50.153Z,100174.59
2023-02-05T04:35:18.851Z,100195.31
2023-02-05T04:37:48.208Z,100260.03
2023-02-05T04:40:16.946Z,100276.59
2023-02-05T04:42:45.412Z,100280.03
2023-02-05T04:45:13.471Z,100278.22
2023-02-05T04:47:41.323Z,100193.81
2023-02-05T04:50:09.203Z,100221.88
2023-02-05T04:52:36.730Z,100288.09
2023-02-05T04:55:04.577Z,100290.75
2023-02-05T04:57:32.355Z,100268.91
2023-02-05T04:59:59.883Z,100289.81
2023-02-05T05:02:28.559Z,100214.63
2023-02-05T05:04:56.125Z,100306.19
2023-02-05T05:07:23.448Z,100307.09
2023-02-05T05:09:52.439Z,100294.88
2023-02-05T05:12:19.988Z,100163.06
2023-02-05T05:14:47.445Z,100312.06
2023-02-05T05:17:15.453Z,100241.44
2023-02-05T05:19:43.129Z,100346.06
2023-02-05T05:22:10.503Z,100331.41
2023-02-05T05:24:38.222Z,100235.50
2023-02-05T05:27:05.952Z,100325.38
2023-02-05T05:29:33.421Z,100320.88
2023-02-05T05:32:01.089Z,100332.16
2023-02-05T05:34:29.118Z,100245.63
2023-02-05T05:36:56.738Z,100240.31
2023-02-05T05:39:42.604Z,100343.22
2023-02-05T05:42:30.495Z,100343.97
2023-02-05T05:44:58.074Z,100340.44
2023-02-05T05:47:25.828Z,100247.19
2023-02-05T05:49:53.191Z,100324.03
2023-02-05T05:52:21.027Z,100369.22
2023-02-05T05:54:48.684Z,100357.19
2023-02-05T05:57:15.959Z,100273.38
2023-02-05T05:59:43.823Z,100256.06
2023-02-05T06:02:11.457Z,100359.00
2023-02-05T06:04:38.863Z,100349.50
2023-02-05T06:07:06.828Z,100337.34
2023-02-05T06:09:34.375Z,100352.22
2023-02-05T06:12:02.572Z,100362.72
2023-02-05T06:14:30.466Z,100327.06
2023-02-05T06:16:57.943Z,100346.31
2023-02-05T06:19:25.424Z,100354.22
2023-02-05T06:21:53.323Z,100312.13
2023-02-05T06:24:21.047Z,100336.59
2023-02-05T06:26:48.530Z,100364.44
2023-02-05T06:29:16.166Z,100367.00
2023-02-05T06:31:44.236Z,100287.28
2023-02-05T06:34:11.741Z,100363.47
2023-02-05T06:36:39.394Z,100375.56
2023-02-05T06:39:07.250Z,100378.19
2023-02-05T06:41:34.711Z,100375.66
2023-02-05T06:44:04.110Z,100387.81
2023-02-05T06:46:32.114Z,100378.38
2023-02-05T06:48:59.477Z,100367.09
2023-02-05T06:51:27.797Z,100381.19
2023-02-05T06:53:57.469Z,100375.22
2023-02-05T06:56:25.100Z,100300.09
2023-02-05T06:58:52.848Z,100382.97
2023-02-05T07:01:20.387Z,100390.84
2023-02-05T07:03:48.693Z,100383.19
2023-02-05T07:06:16.412Z,100394.53
2023-02-05T07:08:44.537Z,100332.47
2023-02-05T07:11:12.073Z,100404.72
2023-02-05T07:13:39.828Z,100291.22
2023-02-05T07:16:07.823Z,100299.00
2023-02-05T07:18:35.486Z,100408.97
2023-02-05T07:21:10.602Z,100333.06
2023-02-05T07:23:38.054Z,100248.63
2023-02-05T07:26:11.529Z,100369.03
2023-02-05T07:28:39.691Z,100416.97
2023-02-05T07:31:09.404Z,100391.66
2023-02-05T07:33:37.838Z,100122.44
2023-02-05T07:36:08.094Z,100392.78
2023-02-05T07:38:37.902Z,100307.28
2023-02-05T07:41:06.947Z,100401.47
2023-02-05T07:43:35.715Z,100368.28
2023-02-05T07:46:06.251Z,100346.50
2023-02-05T07:48:34.413Z,100364.94
2023-02-05T07:51:02.974Z,100320.63
2023-02-05T07:53:30.650Z,100370.31
2023-02-05T07:56:05.386Z,100391.19
2023-02-05T07:58:33.209Z,100292.63
2023-02-05T08:01:02.389Z,100371.06
2023-02-05T08:03:30.790Z,100435.69
2023-02-05T08:05:58.803Z,100339.66
2023-02-05T08:08:26.407Z,100437.50
2023-02-05T08:11:03.495Z,100305.94
2023-02-05T08:13:31.386Z,100224.03
2023-02-05T08:15:58.786Z,100399.44
2023-02-05T08:18:26.686Z,100405.69
2023-02-05T08:20:55.177Z,100405.75
2023-02-05T08:23:23.108Z,100443.28
2023-02-05T08:25:55.450Z,100416.34
2023-02-05T08:28:24.708Z,100406.88
2023-02-05T08:30:52.715Z,100320.63
2023-02-05T08:33:20.593Z,100434.91
2023-02-05T08:35:50.866Z,100406.28
2023-02-05T08:38:18.622Z,100423.78
2023-02-05T08:40:46.237Z,100448.25
2023-02-05T08:43:13.820Z,100445.63
2023-02-05T08:45:41.298Z,100436.03
2023-02-05T08:48:08.986Z,100447.38
2023-02-05T08:50:36.898Z,100450.84
2023-02-05T08:53:04.562Z,100435.19
2023-02-05T08:55:32.548Z,100441.34
2023-02-05T08:58:00.981Z,100450.03
2023-02-05T09:00:33.579Z,100311.50
2023-02-05T09:03:14.903Z,100453.53
2023-02-05T09:05:44.304Z,100385.56
2023-02-05T09:08:24.218Z,100410.00
2023-02-05T09:11:02.389Z,100433.47
2023-02-05T09:13:39.505Z,100441.28
2023-02-05T09:16:24.075Z,100403.75
2023-02-05T09:19:08.092Z,100366.22
2023-02-05T09:21:47.687Z,100464.75
2023-02-05T09:24:17.467Z,100226.03
2023-02-05T09:26:52.888Z,100343.72
2023-02-05T09:29:21.421Z,100407.34
2023-02-05T09:31:49.110Z,100305.41
2023-02-05T09:34:20.710Z,100440.50
2023-02-05T09:36:52.169Z,100299.41
2023-02-05T09:40:01.946Z,100393.47
2023-02-05T09:42:37.499Z,100449.28
2023-02-05T09:45:47.745Z,100459.69
2023-02-05T09:48:49.841Z,100358.56
2023-02-05T09:51:44.374Z,100454.41
2023-02-05T09:54:23.646Z,100402.97
2023-02-05T09:56:55.797Z,100369.88
2023-02-05T09:59:28.324Z,100393.47
2023-02-05T10:02:04.298Z,100384.75
2023-02-05T10:04:39.008Z,100365.47
2023-02-05T10:07:35.885Z,100460.56
2023-02-05T10:10:27.643Z,100465.00
2023-02-05T10:13:04.676Z,100470.25
2023-02-05T10:16:16.235Z,100458.06
2023-02-05T10:19:11.279Z,100460.69
2023-02-05T10:22:07.742Z,100462.41
2023-02-05T10:25:23.654Z,100283.78
2023-02-05T10:28:23.683Z,100464.09
2023-02-05T10:31:15.984Z,100463.09
2023-02-05T10:33:59.341Z,100410.66
2023-02-05T10:36:29.378Z,100390.59
2023-02-05T10:39:05.185Z,100463.81
2023-02-05T10:41:43.392Z,100468.19
2023-02-05T10:44:31.612Z,100321.69
2023-02-05T10:47:37.391Z,100413.22
2023-02-05T10:50:36.368Z,100366.94
2023-02-05T10:53:04.539Z,100464.63
2023-02-05T10:55:36.699Z,100248.38
2023-02-05T10:58:27.281Z,100384.31
2023-02-05T11:00:55.189Z,100449.78
2023-02-05T11:03:26.005Z,100382.69
2023-02-05T11:05:53.914Z,100243.31
2023-02-05T11:08:41.864Z,100465.63
2023-02-05T11:11:40.565Z,100467.31
2023-02-05T11:14:21.637Z,100478.75
2023-02-05T11:16:53.850Z,100464.88
2023-02-05T11:19:25.777Z,100448.38
2023-02-05T11:22:14.959Z,100459.75
2023-02-05T11:24:45.955Z,100464.94
2023-02-05T11:27:21.897Z,100459.78
2023-02-05T11:29:49.962Z,100465.88
2023-02-05T11:32:34.622Z,100469.31
2023-02-05T11:35:39.161Z,100438.75
2023-02-05T11:38:18.121Z,100475.38
2023-02-05T11:40:56.080Z,100364.72
2023-02-05T11:43:29.736Z,100453.56
2023-02-05T11:46:02.469Z,100435.19
2023-02-05T11:48:41.715Z,100482.97
2023-02-05T11:51:13.919Z,100490.75
2023-02-05T11:53:56.126Z,100441.03
2023-02-05T11:56:25.674Z,100367.72
2023-02-05T11:59:06.148Z,100450.53
2023-02-05T12:01:35.970Z,100361.50
2023-02-05T12:04:22.545Z,100484.31
2023-02-05T12:07:02.675Z,100447.66
2023-02-05T12:09:33.407Z,100486.97
2023-02-05T12:12:32.805Z,100436.31
2023-02-05T12:15:25.678Z,100483.41
2023-02-05T12:18:29.214Z,100375.31
2023-02-05T12:21:21.490Z,100482.63
2023-02-05T12:24:27.857Z,100477.34
2023-02-05T12:27:33.193Z,100487.75
2023-02-05T12:30:16.270Z,100485.06
2023-02-05T12:33:12.938Z,100487.59
2023-02-05T12:36:22.711Z,100483.13
2023-02-05T12:38:50.338Z,100489.84
2023-02-05T12:41:37.193Z,100485.56
2023-02-05T12:44:39.147Z,100473.28
2023-02-05T12:47:33.610Z,100493.31
2023-02-05T12:50:26.423Z,100492.34
2023-02-05T12:52:53.929Z,100492.34
2023-02-05T12:55:46.226Z,100482.84
2023-02-05T12:58:16.143Z,100495.09
2023-02-05T13:00:53.725Z,100491.66
2023-02-05T13:03:38.966Z,100491.56
2023-02-05T13:06:13.702Z,100487.22
2023-02-05T13:08:44.544Z,100495.00
2023-02-05T13:11:56.791Z,100417.94
2023-02-05T13:14:30.605Z,100457.22
2023-02-05T13:17:18.220Z,100449.19
2023-02-05T13:20:09.331Z,100431.00
2023-02-05T13:23:06.558Z,100496.50
2023-02-05T13:26:00.993Z,100516.38
2023-02-05T13:28:41.583Z,100503.38
2023-02-05T13:31:38.823Z,100501.72
2023-02-05T13:34:27.600Z,100412.69
2023-02-05T13:36:58.563Z,100500.06
2023-02-05T13:39:44.907Z,100506.00
2023-02-05T13:42:26.346Z,100506.84
2023-02-05T13:45:24.757Z,100503.25
2023-02-05T13:48:21.480Z,100517.97
2023-02-05T13:51:23.557Z,100511.84
2023-02-05T13:54:10.628Z,100512.69
2023-02-05T13:56:59.601Z,100492.56
2023-02-05T13:59:39.342Z,100408.56
2023-02-05T14:02:40.959Z,100518.72
2023-02-05T14:05:13.788Z,100404.31
2023-02-05T14:07:47.547Z,100497.56
2023-02-05T14:10:41.957Z,100509.78
2023-02-05T14:13:18.427Z,100440.72
2023-02-05T14:15:45.896Z,100522.63
2023-02-05T14:18:51.855Z,100414.31
2023-02-05T14:21:31.505Z,100524.28
2023-02-05T14:24:26.633Z,100530.50
2023-02-05T14:26:57.685Z,100417.63
2023-02-05T14:29:46.308Z,100536.44
2023-02-05T14:32:39.811Z,100535.50
2023-02-05T14:35:49.628Z,100538.19
2023-02-05T14:38:33.589Z,100501.53
2023-02-05T14:41:39.005Z,100539.97
2023-02-05T14:44:36.296Z,100532.16
2023-02-05T14:47:23.426Z,100430.84
2023-02-05T14:50:07.493Z,100540.94
2023-02-05T14:52:39.659Z,100550.53
2023-02-05T14:55:16.576Z,100550.75
2023-02-05T14:57:49.129Z,100378.09
2023-02-05T15:00:35.107Z,100543.25
2023-02-05T15:03:18.075Z,100555.41
2023-02-05T15:05:50.412Z,100557.84
2023-02-05T15:08:40.488Z,100553.53
2023-02-05T15:11:43.206Z,100568.00
2023-02-05T15:14:20.861Z,100565.03
2023-02-05T15:17:14.026Z,100557.91
2023-02-05T15:19:50.651Z,100557.75
2023-02-05T15:22:47.058Z,100569.97
2023-02-05T15:25:26.475Z,100573.44
2023-02-05T15:27:59.792Z,100560.34
2023-02-05T15:30:47.954Z,100567.41
2023-02-05T15:33:28.867Z,100564.72
2023-02-05T15:35:57.311Z,100567.44
2023-02-05T15:38:44.593Z,100573.38
2023-02-05T15:41:15.686Z,100474.38
2023-02-05T15:43:58.941Z,100574.94
2023-02-05T15:46:27.827Z,100508.38
2023-02-05T15:48:56.908Z,100558.38
2023-02-05T15:51:32.072Z,100586.25
2023-02-05T15:54:03.179Z,100576.59
2023-02-05T15:56:38.360Z,100587.75
2023-02-05T15:59:16.095Z,100592.13
2023-02-05T16:02:02.533Z,100597.38
2023-02-05T16:04:40.493Z,100593.00
2023-02-05T16:07:24.157Z,100611.91
2023-02-05T16:09:56.980Z,100577.06
2023-02-05T16:12:25.040Z,100604.34
2023-02-05T16:15:05.768Z,100489.00
2023-02-05T16:17:53.346Z,100454.94
2023-02-05T16:20:28.040Z,100508.09
2023-02-05T16:23:02.619Z,100563.16
2023-02-05T16:25:44.195Z,100581.78
2023-02-05T16:28:21.658Z,100600.94
2023-02-05T16:30:52.245Z,100571.41
2023-02-05T16:33:32.787Z,100597.59
2023-02-05T16:36:03.747Z,100597.53
2023-02-05T16:38:31.746Z,100601.09
2023-02-05T16:41:03.762Z,100616.69
2023-02-05T16:43:35.901Z,100601.88
2023-02-05T16:46:09.617Z,100595.69
2023-02-05T16:48:41.908Z,100606.13
2023-02-05T16:51:38.418Z,100617.25
2023-02-05T16:54:11.901Z,100614.59
2023-02-05T16:56:47.819Z,100609.38
2023-02-05T16:59:29.373Z,100492.81
2023-02-05T17:01:59.603Z,100536.72
2023-02-05T17:04:39.236Z,100428.19
2023-02-05T17:07:18.683Z,100612.69
2023-02-05T17:09:46.150Z,100619.72
2023-02-05T17:12:23.035Z,100619.88
2023-02-05T17:15:04.907Z,100623.34
2023-02-05T17:17:33.010Z,100522.75
2023-02-05T17:20:09.763Z,100626.91
2023-02-05T17:22:37.166Z,100630.88
2023-02-05T17:25:06.135Z,100632.84
2023-02-05T17:27:40.302Z,100632.69
2023-02-05T17:30:17.498Z,100515.53
2023-02-05T17:32:50.740Z,100632.78
2023-02-05T17:35:22.323Z,100637.28
2023-02-05T17:37:50.832Z,100631.13
2023-02-05T17:40:19.884Z,100628.41
2023-02-05T17:42:48.208Z,100644.00
2023-02-05T17:45:23.158Z,100618.50
2023-02-05T17:47:50.687Z,100644.81
2023-02-05T17:50:18.652Z,100644.13
2023-02-05T17:52:47.056Z,100552.25
2023-02-05T17:55:21.067Z,100445.28
2023-02-05T17:57:48.946Z,100654.34
2023-02-05T18:00:26.336Z,100652.56
2023-02-05T18:02:54.821Z,100510.72
2023-02-05T18:05:22.636Z,100654.91
2023-02-05T18:07:50.245Z,100657.56
2023-02-05T18:10:24.520Z,100656.50
2023-02-05T18:12:53.817Z,100652.94
2023-02-05T18:15:21.856Z,100643.97
2023-02-05T18:17:49.638Z,100551.00
2023-02-05T18:20:19.737Z,100601.69
2023-02-05T18:22:48.015Z,100614.72
2023-02-05T18:25:15.442Z,100648.03
2023-02-05T18:27:42.961Z,100646.13
2023-02-05T18:30:11.055Z,100542.09
2023-02-05T18:32:38.864Z,100653.22
2023-02-05T18:35:06.787Z,100647.81
2023-02-05T18:37:36.584Z,100639.03
2023-02-05T18:40:05.259Z,100664.13
2023-02-05T18:42:32.858Z,100647.41
2023-02-05T18:45:01.626Z,100647.47
2023-02-05T18:47:30.945Z,100656.97
2023-02-05T18:49:58.392Z,100651.63
2023-02-05T18:52:27.404Z,100657.88
2023-02-05T18:54:54.984Z,100652.38
2023-02-05T18:57:22.451Z,100600.72
2023-02-05T18:59:49.916Z,100664.59
2023-02-05T19:02:17.712Z,100535.56
2023-02-05T19:04:45.883Z,100652.94
2023-02-05T19:07:13.287Z,100667.88
2023-02-05T19:09:41.015Z,100644.97
2023-02-05T19:12:08.629Z,100633.47
2023-02-05T19:14:35.917Z,100679.94
2023-02-05T19:17:03.634Z,100679.16
2023-02-05T19:19:31.349Z,100680.16
2023-02-05T19:22:05.647Z,100683.69
2023-02-05T19:24:35.511Z,100681.94
2023-02-05T19:27:02.844Z,100681.88
2023-02-05T19:29:31.069Z,100678.38
2023-02-05T19:31:58.972Z,100584.59
2023-02-05T19:34:27.959Z,100659.06
2023-02-05T19:36:55.858Z,100675.78
2023-02-05T19:39:23.375Z,100585.38
2023-02-05T19:41:52.024Z,100667.81
2023-02-05T19:44:20.110Z,100586.25
2023-02-05T19:46:48.965Z,100582.72
2023-02-05T19:49:18.885Z,100673.75
2023-02-05T19:51:49.363Z,100683.25
2023-02-05T19:54:17.632Z,100678.88
2023-02-05T19:56:45.979Z,100694.63
2023-02-05T19:59:13.855Z,100668.38
2023-02-05T20:01:43.925Z,100543.06
2023-02-05T20:04:19.677Z,100645.53
2023-02-05T20:06:47.883Z,100595.78
2023-02-05T20:09:17.162Z,100674.63
2023-02-05T20:11:47.717Z,100700.09
2023-02-05T20:14:17.076Z,100677.16
2023-02-05T20:16:45.341Z,100676.28
2023-02-05T20:19:14.902Z,100708.75
2023-02-05T20:21:43.104Z,100637.59
2023-02-05T20:24:11.521Z,100706.91
2023-02-05T20:26:39.977Z,100697.03
2023-02-05T20:29:29.130Z,100719.75
2023-02-05T20:31:58.544Z,100725.66
2023-02-05T20:34:30.738Z,100714.25
2023-02-05T20:37:04.443Z,100713.63
2023-02-05T20:39:34.953Z,100721.41
2023-02-05T20:42:06.405Z,100725.81
2023-02-05T20:44:36.458Z,100721.47
2023-02-05T20:47:04.959Z,100732.66
2023-02-05T20:49:35.226Z,100701.72
2023-02-05T20:52:03.016Z,100690.34
2023-02-05T20:54:30.547Z,100735.91
2023-02-05T20:56:59.671Z,100713.09
2023-02-05T20:59:34.665Z,100731.59
2023-02-05T21:02:03.010Z,100734.25
2023-02-05T21:04:31.319Z,100710.53
2023-02-05T21:06:58.869Z,100731.59
2023-02-05T21:09:26.633Z,100735.09
2023-02-05T21:11:55.692Z,100734.13
2023-02-05T21:14:24.275Z,100733.94
2023-02-05T21:16:51.866Z,100730.44
2023-02-05T21:19:19.524Z,100718.13
2023-02-05T21:21:47.142Z,100640.88
2023-02-05T21:24:16.575Z,100643.66
2023-02-05T21:26:46.795Z,100732.19
2023-02-05T21:29:17.380Z,100668.84
2023-02-05T21:31:50.899Z,100730.53
2023-02-05T21:34:24.317Z,100732.13
2023-02-05T21:36:51.969Z,100679.41
2023-02-05T21:39:20.563Z,100617.25
2023-02-05T21:41:50.851Z,100724.13
2023-02-05T21:44:18.590Z,100730.34
2023-02-05T21:46:46.392Z,100732.13
2023-02-05T21:49:14.101Z,100649.97
2023-02-05T21:51:44.520Z,100733.47
2023-02-05T21:54:12.258Z,100634.50
2023-02-05T21:56:42.887Z,100728.25
2023-02-05T21:59:12.367Z,100738.59
2023-02-05T22:01:41.951Z,100731.59
2023-02-05T22:04:14.081Z,100739.94
2023-02-05T22:06:41.992Z,100716.47
2023-02-05T22:09:11.927Z,100741.69
2023-02-05T22:11:40.809Z,100640.94
2023-02-05T22:14:09.366Z,100738.75
2023-02-05T22:16:38.199Z,100743.13
2023-02-05T22:19:06.602Z,100744.97
2023-02-05T22:21:37.207Z,100548.75
2023-02-05T22:24:05.709Z,100735.34
2023-02-05T22:26:38.714Z,100755.81
2023-02-05T22:29:08.608Z,100748.13
2023-02-05T22:31:36.604Z,100766.25
2023-02-05T22:34:05.409Z,100751.50
2023-02-05T22:36:34.329Z,100771.25
2023-02-05T22:39:03.382Z,100759.19
2023-02-05T22:41:34.412Z,100757.47
2023-02-05T22:44:02.805Z,100704.63
2023-02-05T22:46:35.211Z,100771.94
2023-02-05T22:49:03.674Z,100766.97
2023-02-05T22:51:33.907Z,100753.81
2023-02-05T22:54:02.259Z,100763.78
2023-02-05T22:56:30.599Z,100776.72
2023-02-05T22:58:59.666Z,100780.78
2023-02-05T23:01:30.635Z,100776.28
2023-02-05T23:03:59.450Z,100665.69
2023-02-05T23:06:29.374Z,100770.88
2023-02-05T23:08:58.061Z,100773.31
2023-02-05T23:11:27.154Z,100765.56
2023-02-05T23:13:54.850Z,100782.03
2023-02-05T23:16:28.081Z,100775.84
2023-02-05T23:19:05.089Z,100776.78
2023-02-05T23:21:34.607Z,100747.84
2023-02-05T23:24:03.338Z,100776.06
2023-02-05T23:26:38.915Z,100772.75
2023-02-05T23:29:06.981Z,100791.78
2023-02-05T23:31:34.829Z,100779.00
2023-02-05T23:34:02.688Z,100768.56
2023-02-05T23:36:30.395Z,100621.78
2023-02-05T23:38:57.775Z,100781.09
2023-02-05T23:41:38.263Z,100781.03
2023-02-05T23:44:20.502Z,100682.56
2023-02-05T23:46:51.198Z,100774.84
2023-02-05T23:49:23.449Z,100775.84
2023-02-05T23:51:52.763Z,100774.28
2023-02-05T23:54:21.194Z,100778.84
2023-02-05T23:56:49.216Z,100777.00
2023-02-05T23:59:17.342Z,100759.50
